createdAt,value
2023-04-14T00:00:06.972Z,97894.98
2023-04-14T00:03:27.205Z,97892.33
2023-04-14T00:06:39.662Z,97894.02
2023-04-14T00:09:51.938Z,97892.33
2023-04-14T00:13:04.634Z,97894.14
2023-04-14T00:16:17.814Z,97891.32
2023-04-14T00:19:29.829Z,97884.67
2023-04-14T00:22:41.903Z,97888.16
2023-04-14T00:25:55.564Z,97892.63
2023-04-14T00:29:07.628Z,97893.30
2023-04-14T00:32:19.849Z,97882.02
2023-04-14T00:35:32.290Z,97883.16
2023-04-14T00:38:44.592Z,97883.33
2023-04-14T00:41:56.910Z,97883.16
2023-04-14T00:45:09.487Z,97887.33
2023-04-14T00:48:23.480Z,97885.52
2023-04-14T00:51:35.947Z,97881.34
2023-04-14T00:54:48.456Z,97870.41
2023-04-14T00:58:00.852Z,97867.67
2023-04-14T01:01:13.195Z,97869.43
2023-04-14T01:04:33.661Z,97866.22
2023-04-14T01:07:41.528Z,97868.20
2023-04-14T01:11:03.518Z,97861.77
2023-04-14T01:14:21.876Z,97863.87
2023-04-14T01:17:39.523Z,97857.27
2023-04-14T01:20:56.424Z,97857.14
2023-04-14T01:24:45.574Z,97852.92
2023-04-14T01:28:05.146Z,97837.88
2023-04-14T01:31:32.976Z,97836.70
2023-04-14T01:34:50.759Z,97832.92
2023-04-14T01:38:08.433Z,97836.08
2023-04-14T01:41:22.045Z,97837.25
2023-04-14T01:44:37.131Z,97847.67
2023-04-14T01:47:51.392Z,97836.08
2023-04-14T01:51:04.838Z,97838.59
2023-04-14T01:54:20.740Z,97834.11
2023-04-14T01:57:35.028Z,97828.52
2023-04-14T02:00:49.102Z,97829.02
2023-04-14T02:04:01.723Z,97829.69
2023-04-14T02:07:17.042Z,97826.16
2023-04-14T02:10:30.782Z,97826.73
2023-04-14T02:13:45.320Z,97826.39
2023-04-14T02:16:59.698Z,97819.91
2023-04-14T02:20:17.447Z,97817.20
2023-04-14T02:23:36.964Z,97813.20
2023-04-14T02:26:56.363Z,97801.32
2023-04-14T02:30:15.613Z,97805.27
2023-04-14T02:33:33.086Z,97799.23
2023-04-14T02:36:49.573Z,97799.45
2023-04-14T02:40:10.007Z,97795.81
2023-04-14T02:43:28.429Z,97788.33
2023-04-14T02:46:45.495Z,97790.63
2023-04-14T02:50:00.273Z,97794.05
2023-04-14T02:53:13.932Z,97793.66
2023-04-14T02:56:27.347Z,97800.25
2023-04-14T02:59:42.277Z,97796.53
2023-04-14T03:02:58.248Z,97791.45
2023-04-14T03:06:12.443Z,97780.71
2023-04-14T03:09:26.684Z,97755.48
2023-04-14T03:12:41.796Z,97770.28
2023-04-14T03:15:57.990Z,97772.77
2023-04-14T03:19:12.844Z,97775.25
2023-04-14T03:22:28.513Z,97767.26
2023-04-14T03:25:44.204Z,97779.58
2023-04-14T03:29:00.015Z,97776.60
2023-04-14T03:32:14.437Z,97780.25
2023-04-14T03:35:27.888Z,97772.15
2023-04-14T03:38:42.938Z,97771.02
2023-04-14T03:41:57.394Z,97757.28
2023-04-14T03:45:11.773Z,97755.64
2023-04-14T03:48:29.864Z,97765.05
2023-04-14T03:51:44.871Z,97754.70
2023-04-14T03:55:02.746Z,97760.31
2023-04-14T03:58:17.687Z,97763.80
2023-04-14T04:01:33.172Z,97770.58
2023-04-14T04:04:46.871Z,97775.58
2023-04-14T04:08:02.418Z,97778.79
2023-04-14T04:11:18.245Z,97770.39
2023-04-14T04:14:32.287Z,97770.39
2023-04-14T04:17:46.068Z,97768.55
2023-04-14T04:21:01.446Z,97770.69
2023-04-14T04:24:16.504Z,97774.69
2023-04-14T04:27:29.662Z,97772.88
2023-04-14T04:30:46.552Z,97780.36
2023-04-14T04:33:59.401Z,97779.05
2023-04-14T04:37:13.422Z,97782.38
2023-04-14T04:40:26.332Z,97786.50
2023-04-14T04:43:38.850Z,97782.21
2023-04-14T04:46:59.079Z,97782.39
2023-04-14T04:50:14.208Z,97780.41
2023-04-14T04:53:26.871Z,97771.17
2023-04-14T04:56:39.342Z,97776.46
2023-04-14T04:59:51.460Z,97778.64
2023-04-14T05:03:03.786Z,97767.75
2023-04-14T05:06:16.850Z,97767.58
2023-04-14T05:09:28.929Z,97758.63
2023-04-14T05:12:40.942Z,97753.70
2023-04-14T05:15:53.550Z,97749.11
2023-04-14T05:19:06.273Z,97743.30
2023-04-14T05:22:18.363Z,97742.86
2023-04-14T05:25:30.468Z,97731.63
2023-04-14T05:28:42.477Z,97734.79
2023-04-14T05:31:54.422Z,97724.86
2023-04-14T05:35:07.037Z,97719.73
2023-04-14T05:38:19.272Z,97716.74
2023-04-14T05:45:17.286Z,97704.32
2023-04-14T05:48:31.096Z,97696.36
2023-04-14T05:51:56.648Z,97696.53
2023-04-14T05:55:22.689Z,97693.88
2023-04-14T06:02:35.016Z,97686.09
2023-04-14T06:09:31.999Z,97677.04
2023-04-14T06:12:44.801Z,97676.72
2023-04-14T06:16:08.962Z,97681.67
2023-04-14T06:19:22.922Z,97683.79
2023-04-14T06:22:53.790Z,97674.02
2023-04-14T06:29:47.811Z,97677.58
2023-04-14T06:33:03.858Z,97677.25
2023-04-14T06:36:26.568Z,97675.71
2023-04-14T06:39:45.232Z,97677.58
2023-04-14T06:42:58.459Z,97664.24
2023-04-14T06:46:10.817Z,97661.77
2023-04-14T06:49:24.454Z,97663.61
2023-04-14T06:52:36.516Z,97651.08
2023-04-14T06:55:49.797Z,97643.50
2023-04-14T06:59:01.799Z,97628.59
2023-04-14T07:02:13.953Z,97624.83
2023-04-14T07:05:26.666Z,97620.47
2023-04-14T07:08:40.837Z,97611.64
2023-04-14T07:11:53.853Z,97612.72
2023-04-14T07:15:06.010Z,97608.52
2023-04-14T07:18:18.023Z,97597.03
2023-04-14T07:21:30.572Z,97590.84
2023-04-14T07:24:42.858Z,97600.36
2023-04-14T07:28:03.313Z,97602.41
2023-04-14T07:31:15.142Z,97595.59
2023-04-14T07:34:28.118Z,97607.77
2023-04-14T07:37:40.530Z,97606.91
2023-04-14T07:40:52.579Z,97606.10
2023-04-14T07:44:04.576Z,97608.38
2023-04-14T07:47:16.653Z,97600.33
2023-04-14T07:50:28.868Z,97606.13
2023-04-14T07:53:43.130Z,97611.41
2023-04-14T07:56:56.327Z,97611.02
2023-04-14T08:00:09.943Z,97617.28
2023-04-14T08:03:25.068Z,97609.26
2023-04-14T08:06:37.446Z,97598.88
2023-04-14T08:09:49.432Z,97598.50
2023-04-14T08:13:03.508Z,97600.91
2023-04-14T08:16:15.788Z,97589.42
2023-04-14T08:19:27.937Z,97585.57
2023-04-14T08:22:43.385Z,97584.84
2023-04-14T08:25:55.274Z,97575.72
2023-04-14T08:29:07.467Z,97569.54
2023-04-14T08:32:19.582Z,97560.35
2023-04-14T08:35:37.437Z,97560.17
2023-04-14T08:38:46.186Z,97557.48
2023-04-14T08:41:59.640Z,97534.31
2023-04-14T08:45:14.005Z,97541.43
2023-04-14T08:48:28.512Z,97545.14
2023-04-14T08:51:45.749Z,97547.98
2023-04-14T08:54:58.577Z,97546.67
2023-04-14T08:58:13.477Z,97553.33
2023-04-14T09:01:26.549Z,97547.89
2023-04-14T09:04:40.120Z,97535.77
2023-04-14T09:07:52.587Z,97542.59
2023-04-14T09:11:04.817Z,97543.92
2023-04-14T09:14:17.309Z,97549.05
2023-04-14T09:17:31.718Z,97549.96
2023-04-14T09:20:44.138Z,97550.42
2023-04-14T09:24:01.691Z,97542.00
2023-04-14T09:27:26.846Z,97536.83
2023-04-14T09:31:11.899Z,97535.11
2023-04-14T09:35:01.375Z,97523.45
2023-04-14T09:38:27.791Z,97517.04
2023-04-14T09:41:58.436Z,97521.94
2023-04-14T09:45:12.639Z,97515.63
2023-04-14T09:48:35.622Z,97512.67
2023-04-14T09:52:02.902Z,97514.72
2023-04-14T09:55:21.465Z,97499.75
2023-04-14T09:58:44.164Z,97498.76
2023-04-14T10:01:58.401Z,97494.27
2023-04-14T10:05:17.690Z,97490.98
2023-04-14T10:08:46.568Z,97484.36
2023-04-14T10:12:21.877Z,97484.35
2023-04-14T10:15:35.159Z,97481.94
2023-04-14T10:18:47.293Z,97486.09
2023-04-14T10:22:02.080Z,97485.88
2023-04-14T10:25:17.743Z,97484.12
2023-04-14T10:28:34.226Z,97480.41
2023-04-14T10:31:50.086Z,97477.55
2023-04-14T10:35:10.674Z,97469.55
2023-04-14T10:38:23.166Z,97463.13
2023-04-14T10:41:51.152Z,97470.70
2023-04-14T10:45:16.167Z,97467.76
2023-04-14T10:48:30.235Z,97454.72
2023-04-14T10:51:44.323Z,97454.23
2023-04-14T10:55:05.079Z,97451.36
2023-04-14T10:58:24.356Z,97455.93
2023-04-14T11:01:41.148Z,97453.89
2023-04-14T11:05:11.953Z,97439.75
2023-04-14T11:08:29.079Z,97453.55
2023-04-14T11:11:39.482Z,97439.31
2023-04-14T11:14:53.331Z,97429.38
2023-04-14T11:18:18.597Z,97429.51
2023-04-14T11:21:43.728Z,97437.11
2023-04-14T11:24:56.183Z,97435.82
2023-04-14T11:28:09.183Z,97438.23
2023-04-14T11:31:23.398Z,97430.95
2023-04-14T11:34:35.745Z,97418.50
2023-04-14T11:37:49.043Z,97431.17
2023-04-14T11:41:01.784Z,97421.84
2023-04-14T11:44:14.629Z,97421.27
2023-04-14T11:47:30.366Z,97432.74
2023-04-14T11:50:44.926Z,97430.66
2023-04-14T11:53:57.442Z,97427.47
2023-04-14T11:57:15.033Z,97409.80
2023-04-14T12:00:28.707Z,97416.31
2023-04-14T12:03:42.557Z,97400.14
2023-04-14T12:06:54.948Z,97403.20
2023-04-14T12:10:07.921Z,97395.75
2023-04-14T12:13:20.267Z,97391.49
2023-04-14T12:16:32.724Z,97399.95
2023-04-14T12:19:45.511Z,97388.78
2023-04-14T12:23:00.685Z,97372.98
2023-04-14T12:26:17.530Z,97362.80
2023-04-14T12:29:27.879Z,97364.53
2023-04-14T12:32:45.725Z,97359.05
2023-04-14T12:35:57.988Z,97345.80
2023-04-14T12:39:14.569Z,97347.55
2023-04-14T12:42:27.301Z,97346.13
2023-04-14T12:45:51.324Z,97342.12
2023-04-14T12:49:03.600Z,97333.67
2023-04-14T12:52:16.313Z,97328.27
2023-04-14T12:55:30.324Z,97323.16
2023-04-14T12:58:43.129Z,97336.02
2023-04-14T13:01:56.519Z,97319.90
2023-04-14T13:05:09.440Z,97317.69
2023-04-14T13:08:21.712Z,97314.10
2023-04-14T13:11:34.269Z,97315.83
2023-04-14T13:14:46.424Z,97308.63
2023-04-14T13:17:58.597Z,97311.39
2023-04-14T13:21:11.413Z,97313.20
2023-04-14T13:24:23.486Z,97302.97
2023-04-14T13:27:35.626Z,97306.68
2023-04-14T13:30:48.859Z,97301.17
2023-04-14T13:34:00.817Z,97316.70
2023-04-14T13:37:12.765Z,97296.94
2023-04-14T13:40:24.896Z,97316.20
2023-04-14T13:43:37.692Z,97316.03
2023-04-14T13:46:50.454Z,97309.46
2023-04-14T13:50:02.631Z,97316.26
2023-04-14T13:53:14.726Z,97316.03
2023-04-14T13:56:27.521Z,97313.57
2023-04-14T13:59:39.664Z,97306.77
2023-04-14T14:02:52.337Z,97303.06
2023-04-14T14:06:04.697Z,97303.69
2023-04-14T14:09:16.823Z,97304.52
2023-04-14T14:12:28.943Z,97306.43
2023-04-14T14:15:41.456Z,97301.98
2023-04-14T14:18:53.695Z,97303.29
2023-04-14T14:22:07.671Z,97308.42
2023-04-14T14:25:21.210Z,97305.97
2023-04-14T14:28:33.899Z,97301.25
2023-04-14T14:31:45.945Z,97298.66
2023-04-14T14:34:58.133Z,97299.36
2023-04-14T14:38:10.267Z,97301.89
2023-04-14T14:41:23.449Z,97302.77
2023-04-14T14:44:35.594Z,97304.73
2023-04-14T14:47:47.793Z,97300.99
2023-04-14T14:50:59.954Z,97303.45
2023-04-14T14:54:12.245Z,97306.58
2023-04-14T14:57:24.785Z,97292.23
2023-04-14T15:00:37.001Z,97297.78
2023-04-14T15:03:49.822Z,97299.67
2023-04-14T15:07:02.496Z,97294.77
2023-04-14T15:10:16.358Z,97302.20
2023-04-14T15:13:29.740Z,97307.11
2023-04-14T15:16:41.978Z,97308.77
2023-04-14T15:19:54.460Z,97311.86
2023-04-14T15:23:07.311Z,97313.33
2023-04-14T15:26:19.798Z,97312.13
2023-04-14T15:29:31.868Z,97312.95
2023-04-14T15:32:44.295Z,97308.45
2023-04-14T15:35:56.562Z,97317.31
2023-04-14T15:39:08.686Z,97317.16
2023-04-14T15:42:20.986Z,97319.23
2023-04-14T15:45:33.088Z,97322.95
2023-04-14T15:48:45.782Z,97319.28
2023-04-14T15:51:57.740Z,97317.67
2023-04-14T15:55:12.350Z,97318.52
2023-04-14T15:58:24.371Z,97323.90
2023-04-14T16:01:36.662Z,97317.98
2023-04-14T16:04:48.850Z,97317.78
2023-04-14T16:08:01.178Z,97299.50
2023-04-14T16:11:13.440Z,97311.66
2023-04-14T16:14:25.501Z,97316.17
2023-04-14T16:17:37.589Z,97321.35
2023-04-14T16:20:50.395Z,97324.25
2023-04-14T16:24:03.133Z,97316.67
2023-04-14T16:27:15.464Z,97319.97
2023-04-14T16:30:27.647Z,97326.14
2023-04-14T16:33:39.785Z,97317.71
2023-04-14T16:36:52.389Z,97324.93
2023-04-14T16:40:06.640Z,97319.36
2023-04-14T16:43:18.838Z,97316.28
2023-04-14T16:46:32.495Z,97323.69
2023-04-14T16:49:44.520Z,97320.39
2023-04-14T16:52:56.772Z,97318.95
2023-04-14T16:56:13.430Z,97316.70
2023-04-14T16:59:25.569Z,97317.50
2023-04-14T17:02:38.838Z,97315.67
2023-04-14T17:05:51.775Z,97331.48
2023-04-14T17:09:04.699Z,97328.59
2023-04-14T17:12:17.939Z,97327.77
2023-04-14T17:15:30.042Z,97329.39
2023-04-14T17:18:43.084Z,97332.25
2023-04-14T17:21:55.223Z,97335.34
2023-04-14T17:25:07.919Z,97338.19
2023-04-14T17:28:22.120Z,97337.53
2023-04-14T17:31:35.196Z,97347.83
2023-04-14T17:34:47.684Z,97343.08
2023-04-14T17:38:03.917Z,97349.08
2023-04-14T17:41:18.994Z,97352.31
2023-04-14T17:44:37.007Z,97354.98
2023-04-14T17:47:49.482Z,97349.84
2023-04-14T17:51:02.583Z,97353.94
2023-04-14T17:54:15.036Z,97372.84
2023-04-14T17:57:27.988Z,97376.97
2023-04-14T18:00:40.511Z,97378.59
2023-04-14T18:03:53.450Z,97378.59
2023-04-14T18:07:06.750Z,97373.53
2023-04-14T18:10:19.726Z,97374.98
2023-04-14T18:13:32.053Z,97378.03
2023-04-14T18:16:44.966Z,97378.88
2023-04-14T18:19:59.682Z,97384.59
2023-04-14T18:23:12.933Z,97388.03
2023-04-14T18:26:26.841Z,97384.31
2023-04-14T18:29:39.528Z,97375.06
2023-04-14T18:32:52.602Z,97379.36
2023-04-14T18:36:06.743Z,97372.34
2023-04-14T18:39:19.439Z,97377.02
2023-04-14T18:42:33.067Z,97383.77
2023-04-14T18:45:47.405Z,97384.97
2023-04-14T18:49:00.111Z,97381.42
2023-04-14T18:52:12.613Z,97384.50
2023-04-14T18:55:39.558Z,97382.83
2023-04-14T18:58:42.298Z,97394.27
2023-04-14T19:01:54.421Z,97388.88
2023-04-14T19:05:06.781Z,97389.28
2023-04-14T19:08:19.013Z,97390.48
2023-04-14T19:11:32.590Z,97389.86
2023-04-14T19:14:45.054Z,97387.77
2023-04-14T19:17:57.193Z,97378.13
2023-04-14T19:21:09.973Z,97373.17
2023-04-14T19:24:22.234Z,97381.38
2023-04-14T19:27:36.247Z,97375.20
2023-04-14T19:30:49.236Z,97381.57
2023-04-14T19:34:01.442Z,97386.44
2023-04-14T19:37:13.820Z,97394.64
2023-04-14T19:40:27.006Z,97391.74
2023-04-14T19:43:39.315Z,97396.81
2023-04-14T19:46:52.236Z,97399.48
2023-04-14T19:50:04.824Z,97388.58
2023-04-14T19:53:17.286Z,97395.02
2023-04-14T19:56:30.186Z,97395.02
2023-04-14T19:59:42.824Z,97398.31
2023-04-14T20:02:55.429Z,97398.71
2023-04-14T20:06:07.590Z,97413.04
2023-04-14T20:09:20.185Z,97406.07
2023-04-14T20:12:33.290Z,97400.74
2023-04-14T20:15:46.684Z,97411.14
2023-04-14T20:18:59.338Z,97405.17
2023-04-14T20:22:11.987Z,97406.40
2023-04-14T20:25:24.907Z,97407.83
2023-04-14T20:28:37.337Z,97404.73
2023-04-14T20:31:49.487Z,97406.20
2023-04-14T20:35:02.158Z,97403.34
2023-04-14T20:38:15.417Z,97396.94
2023-04-14T20:41:28.100Z,97406.96
2023-04-14T20:44:40.314Z,97413.69
2023-04-14T20:47:52.564Z,97410.78
2023-04-14T20:51:05.045Z,97415.20
2023-04-14T20:54:17.343Z,97407.64
2023-04-14T20:57:29.778Z,97407.41
2023-04-14T21:00:41.906Z,97436.50
2023-04-14T21:03:54.878Z,97444.25
2023-04-14T21:07:07.181Z,97450.97
2023-04-14T21:10:20.155Z,97456.02
2023-04-14T21:15:28.545Z,97454.38
2023-04-14T21:16:46.875Z,97454.09
2023-04-14T21:19:59.531Z,97459.42
2023-04-14T21:23:11.672Z,97453.65
2023-04-14T21:26:24.221Z,97447.24
2023-04-14T21:29:36.586Z,97456.22
2023-04-14T21:32:49.230Z,97454.14
2023-04-14T21:36:02.677Z,97459.63
2023-04-14T21:39:14.885Z,97463.03
2023-04-14T21:42:27.823Z,97471.40
2023-04-14T21:45:40.354Z,97463.80
2023-04-14T21:48:52.584Z,97473.67
2023-04-14T21:52:04.531Z,97481.79
2023-04-14T21:55:17.145Z,97479.29
2023-04-14T21:58:29.325Z,97482.97
2023-04-14T22:01:43.021Z,97477.66
2023-04-14T22:04:55.266Z,97477.20
2023-04-14T22:08:07.526Z,97482.05
2023-04-14T22:11:19.672Z,97499.67
2023-04-14T22:14:33.154Z,97512.34
2023-04-14T22:17:46.685Z,97500.30
2023-04-14T22:20:58.887Z,97508.28
2023-04-14T22:24:12.687Z,97498.66
2023-04-14T22:27:24.819Z,97483.78
2023-04-14T22:30:37.087Z,97479.83
2023-04-14T22:33:49.689Z,97485.45
2023-04-14T22:37:03.098Z,97492.05
2023-04-14T22:40:17.870Z,97494.07
2023-04-14T22:43:30.205Z,97495.25
2023-04-14T22:46:42.528Z,97497.08
2023-04-14T22:49:55.114Z,97487.91
2023-04-14T22:53:07.816Z,97489.10
2023-04-14T22:56:19.773Z,97498.45
2023-04-14T22:59:32.311Z,97507.16
2023-04-14T23:02:45.657Z,97510.53
2023-04-14T23:05:58.410Z,97504.98
2023-04-14T23:09:11.046Z,97520.17
2023-04-14T23:12:23.061Z,97519.06
2023-04-14T23:15:36.065Z,97521.72
2023-04-14T23:18:50.279Z,97530.22
2023-04-14T23:22:02.546Z,97523.61
2023-04-14T23:25:15.978Z,97522.03
2023-04-14T23:28:29.664Z,97530.53
2023-04-14T23:31:42.226Z,97538.50
2023-04-14T23:34:54.585Z,97528.42
2023-04-14T23:38:06.792Z,97530.43
2023-04-14T23:41:19.415Z,97518.50
2023-04-14T23:44:32.031Z,97520.66
2023-04-14T23:47:44.504Z,97535.95
2023-04-14T23:50:58.903Z,97536.31
2023-04-14T23:54:11.948Z,97557.57
2023-04-14T23:57:24.795Z,97560.41
